sensor_id;sensor_type;location;lat;lon;timestamp;pressure;altitude;pressure_sealevel;temperature;humidity
20023;BME280;10172;42.054;24.546;2023-05-19T00:01:55;98231.16;;;13.63;100.00
20023;BME280;10172;42.054;24.546;2023-05-19T00:04:21;98248.81;;;13.98;100.00
20023;BME280;10172;42.054;24.546;2023-05-19T00:06:50;98249.50;;;14.22;100.00
20023;BME280;10172;42.054;24.546;2023-05-19T00:09:16;98236.22;;;14.31;100.00
20023;BME280;10172;42.054;24.546;2023-05-19T00:11:41;98237.97;;;14.10;100.00
20023;BME280;10172;42.054;24.546;2023-05-19T00:14:08;98244.31;;;14.41;100.00
20023;BME280;10172;42.054;24.546;2023-05-19T00:16:35;98227.94;;;14.34;100.00
20023;BME280;10172;42.054;24.546;2023-05-19T00:19:02;98224.38;;;14.02;100.00
20023;BME280;10172;42.054;24.546;2023-05-19T00:21:29;98228.81;;;13.81;100.00
20023;BME280;10172;42.054;24.546;2023-05-19T00:23:55;98235.53;;;14.07;100.00
20023;BME280;10172;42.054;24.546;2023-05-19T00:26:21;98234.28;;;13.79;100.00
20023;BME280;10172;42.054;24.546;2023-05-19T00:28:48;98233.19;;;14.14;100.00
20023;BME280;10172;42.054;24.546;2023-05-19T00:31:13;98224.31;;;14.24;100.00
20023;BME280;10172;42.054;24.546;2023-05-19T00:33:39;98232.44;;;14.23;100.00
20023;BME280;10172;42.054;24.546;2023-05-19T00:36:05;98241.91;;;14.38;100.00
20023;BME280;10172;42.054;24.546;2023-05-19T00:38:32;98241.13;;;14.47;100.00
20023;BME280;10172;42.054;24.546;2023-05-19T00:40:58;98244.31;;;15.03;100.00
20023;BME280;10172;42.054;24.546;2023-05-19T00:43:24;98226.13;;;14.56;100.00
20023;BME280;10172;42.054;24.546;2023-05-19T00:45:50;98225.72;;;14.40;100.00
20023;BME280;10172;42.054;24.546;2023-05-19T00:48:16;98224.91;;;14.60;100.00
20023;BME280;10172;42.054;24.546;2023-05-19T00:50:41;98225.66;;;14.51;100.00
20023;BME280;10172;42.054;24.546;2023-05-19T00:53:07;98230.50;;;14.57;100.00
20023;BME280;10172;42.054;24.546;2023-05-19T00:55:35;98223.94;;;14.50;100.00
20023;BME280;10172;42.054;24.546;2023-05-19T00:58:02;98214.97;;;14.51;100.00
20023;BME280;10172;42.054;24.546;2023-05-19T01:00:29;98228.69;;;14.14;100.00
20023;BME280;10172;42.054;24.546;2023-05-19T01:02:55;98214.09;;;14.18;100.00
20023;BME280;10172;42.054;24.546;2023-05-19T01:05:21;98216.00;;;14.27;100.00
20023;BME280;10172;42.054;24.546;2023-05-19T01:07:47;98218.63;;;14.70;100.00
20023;BME280;10172;42.054;24.546;2023-05-19T01:10:18;98220.84;;;14.86;100.00
20023;BME280;10172;42.054;24.546;2023-05-19T01:12:43;98229.53;;;14.78;100.00
20023;BME280;10172;42.054;24.546;2023-05-19T01:15:10;98229.72;;;14.66;100.00
20023;BME280;10172;42.054;24.546;2023-05-19T01:17:49;98232.06;;;14.80;100.00
20023;BME280;10172;42.054;24.546;2023-05-19T01:20:21;98225.75;;;14.81;100.00
20023;BME280;10172;42.054;24.546;2023-05-19T01:23:11;98230.22;;;15.01;100.00
20023;BME280;10172;42.054;24.546;2023-05-19T01:26:08;98222.34;;;14.26;100.00
20023;BME280;10172;42.054;24.546;2023-05-19T01:31:26;98225.31;;;14.12;100.00
20023;BME280;10172;42.054;24.546;2023-05-19T01:33:53;98220.25;;;13.98;100.00
20023;BME280;10172;42.054;24.546;2023-05-19T01:36:21;98216.22;;;14.35;100.00
20023;BME280;10172;42.054;24.546;2023-05-19T01:38:50;98212.28;;;14.51;100.00
20023;BME280;10172;42.054;24.546;2023-05-19T01:41:18;98216.06;;;14.16;100.00
20023;BME280;10172;42.054;24.546;2023-05-19T01:43:45;98216.06;;;14.16;100.00
20023;BME280;10172;42.054;24.546;2023-05-19T01:46:12;98216.38;;;13.91;100.00
20023;BME280;10172;42.054;24.546;2023-05-19T01:48:38;98203.31;;;13.66;100.00
20023;BME280;10172;42.054;24.546;2023-05-19T01:51:04;98210.59;;;13.75;100.00
20023;BME280;10172;42.054;24.546;2023-05-19T01:53:30;98219.00;;;13.70;100.00
20023;BME280;10172;42.054;24.546;2023-05-19T01:55:56;98229.03;;;13.89;100.00
20023;BME280;10172;42.054;24.546;2023-05-19T01:58:45;98235.75;;;14.15;100.00
20023;BME280;10172;42.054;24.546;2023-05-19T02:06:48;98224.41;;;14.55;100.00
20023;BME280;10172;42.054;24.546;2023-05-19T02:09:29;98227.69;;;14.26;100.00
20023;BME280;10172;42.054;24.546;2023-05-19T02:12:03;98232.81;;;13.87;100.00
20023;BME280;10172;42.054;24.546;2023-05-19T02:15:32;98236.84;;;13.70;100.00
20023;BME280;10172;42.054;24.546;2023-05-19T02:17:26;98233.56;;;13.66;100.00
20023;BME280;10172;42.054;24.546;2023-05-19T02:19:57;98230.28;;;13.74;100.00
20023;BME280;10172;42.054;24.546;2023-05-19T02:22:23;98225.78;;;13.74;100.00
20023;BME280;10172;42.054;24.546;2023-05-19T02:24:48;98232.97;;;13.63;100.00
20023;BME280;10172;42.054;24.546;2023-05-19T02:27:15;98231.41;;;14.03;100.00
20023;BME280;10172;42.054;24.546;2023-05-19T02:29:41;98222.41;;;13.72;100.00
20023;BME280;10172;42.054;24.546;2023-05-19T02:32:07;98228.03;;;13.90;100.00
20023;BME280;10172;42.054;24.546;2023-05-19T02:34:32;98223.84;;;13.54;100.00
20023;BME280;10172;42.054;24.546;2023-05-19T02:36:58;98229.31;;;13.64;100.00
20023;BME280;10172;42.054;24.546;2023-05-19T02:39:23;98232.72;;;13.66;100.00
20023;BME280;10172;42.054;24.546;2023-05-19T02:41:49;98233.09;;;13.72;100.00
20023;BME280;10172;42.054;24.546;2023-05-19T02:44:14;98232.94;;;13.74;100.00
20023;BME280;10172;42.054;24.546;2023-05-19T02:46:40;98235.50;;;13.87;100.00
20023;BME280;10172;42.054;24.546;2023-05-19T02:49:06;98234.22;;;13.37;100.00
20023;BME280;10172;42.054;24.546;2023-05-19T02:51:32;98230.09;;;13.33;100.00
20023;BME280;10172;42.054;24.546;2023-05-19T02:53:57;98248.19;;;13.51;100.00
20023;BME280;10172;42.054;24.546;2023-05-19T02:56:23;98242.31;;;13.68;100.00
20023;BME280;10172;42.054;24.546;2023-05-19T02:58:48;98255.81;;;13.56;100.00
20023;BME280;10172;42.054;24.546;2023-05-19T03:01:14;98248.19;;;14.05;100.00
20023;BME280;10172;42.054;24.546;2023-05-19T03:03:39;98238.47;;;14.04;100.00
20023;BME280;10172;42.054;24.546;2023-05-19T03:06:05;98253.16;;;13.67;100.00
20023;BME280;10172;42.054;24.546;2023-05-19T03:08:33;98245.34;;;13.86;100.00
20023;BME280;10172;42.054;24.546;2023-05-19T03:10:59;98250.63;;;14.08;100.00
20023;BME280;10172;42.054;24.546;2023-05-19T03:13:25;98246.31;;;14.17;100.00
20023;BME280;10172;42.054;24.546;2023-05-19T03:15:50;98246.03;;;14.31;100.00
20023;BME280;10172;42.054;24.546;2023-05-19T03:18:16;98242.16;;;13.92;100.00
20023;BME280;10172;42.054;24.546;2023-05-19T03:20:42;98260.81;;;14.14;100.00
20023;BME280;10172;42.054;24.546;2023-05-19T03:23:09;98260.00;;;14.46;100.00
20023;BME280;10172;42.054;24.546;2023-05-19T03:25:34;98254.53;;;14.68;100.00
20023;BME280;10172;42.054;24.546;2023-05-19T03:28:00;98254.75;;;14.01;100.00
20023;BME280;10172;42.054;24.546;2023-05-19T03:30:26;98266.41;;;14.11;100.00
20023;BME280;10172;42.054;24.546;2023-05-19T03:32:51;98267.44;;;14.42;100.00
20023;BME280;10172;42.054;24.546;2023-05-19T03:35:17;98270.25;;;14.29;100.00
20023;BME280;10172;42.054;24.546;2023-05-19T03:37:43;98267.69;;;14.28;100.00
20023;BME280;10172;42.054;24.546;2023-05-19T03:40:08;98273.47;;;14.01;100.00
20023;BME280;10172;42.054;24.546;2023-05-19T03:42:34;98261.56;;;14.05;100.00
20023;BME280;10172;42.054;24.546;2023-05-19T03:45:00;98267.81;;;14.38;100.00
20023;BME280;10172;42.054;24.546;2023-05-19T03:47:25;98266.50;;;14.21;100.00
20023;BME280;10172;42.054;24.546;2023-05-19T03:49:51;98268.53;;;14.40;100.00
20023;BME280;10172;42.054;24.546;2023-05-19T03:52:16;98273.09;;;14.60;100.00
20023;BME280;10172;42.054;24.546;2023-05-19T03:54:42;98260.25;;;14.63;100.00
20023;BME280;10172;42.054;24.546;2023-05-19T03:57:08;98263.53;;;14.67;100.00
20023;BME280;10172;42.054;24.546;2023-05-19T03:59:35;98265.50;;;14.85;100.00
20023;BME280;10172;42.054;24.546;2023-05-19T04:02:02;98276.16;;;14.96;100.00
20023;BME280;10172;42.054;24.546;2023-05-19T04:04:27;98277.31;;;15.04;100.00
20023;BME280;10172;42.054;24.546;2023-05-19T04:06:53;98273.84;;;14.71;100.00
20023;BME280;10172;42.054;24.546;2023-05-19T04:09:18;98274.50;;;14.64;100.00
20023;BME280;10172;42.054;24.546;2023-05-19T04:11:44;98277.66;;;15.10;100.00
20023;BME280;10172;42.054;24.546;2023-05-19T04:14:10;98287.66;;;15.08;100.00
20023;BME280;10172;42.054;24.546;2023-05-19T04:16:35;98290.31;;;15.29;100.00
20023;BME280;10172;42.054;24.546;2023-05-19T04:19:01;98290.38;;;15.18;100.00
20023;BME280;10172;42.054;24.546;2023-05-19T04:21:27;98283.91;;;15.20;100.00
20023;BME280;10172;42.054;24.546;2023-05-19T04:23:52;98288.84;;;15.25;100.00
20023;BME280;10172;42.054;24.546;2023-05-19T04:26:18;98289.50;;;15.59;100.00
20023;BME280;10172;42.054;24.546;2023-05-19T04:28:46;98290.03;;;15.92;100.00
20023;BME280;10172;42.054;24.546;2023-05-19T04:31:13;98300.63;;;15.54;100.00
20023;BME280;10172;42.054;24.546;2023-05-19T04:33:39;98298.50;;;15.57;100.00
20023;BME280;10172;42.054;24.546;2023-05-19T04:36:06;98296.91;;;15.76;100.00
20023;BME280;10172;42.054;24.546;2023-05-19T04:38:38;98290.97;;;15.72;100.00
20023;BME280;10172;42.054;24.546;2023-05-19T04:41:06;98280.34;;;15.71;100.00
20023;BME280;10172;42.054;24.546;2023-05-19T04:43:36;98281.94;;;15.22;100.00
20023;BME280;10172;42.054;24.546;2023-05-19T04:46:09;98283.75;;;15.42;100.00
20023;BME280;10172;42.054;24.546;2023-05-19T04:48:37;98298.81;;;15.13;100.00
20023;BME280;10172;42.054;24.546;2023-05-19T04:51:04;98289.56;;;15.78;100.00
20023;BME280;10172;42.054;24.546;2023-05-19T04:53:30;98296.69;;;15.37;100.00
20023;BME280;10172;42.054;24.546;2023-05-19T04:55:57;98292.16;;;15.89;100.00
20023;BME280;10172;42.054;24.546;2023-05-19T04:58:22;98302.19;;;15.87;100.00
20023;BME280;10172;42.054;24.546;2023-05-19T05:00:50;98302.19;;;15.57;100.00
20023;BME280;10172;42.054;24.546;2023-05-19T05:03:17;98303.66;;;15.70;100.00
20023;BME280;10172;42.054;24.546;2023-05-19T05:05:42;98296.53;;;15.29;100.00
20023;BME280;10172;42.054;24.546;2023-05-19T05:08:09;98297.03;;;15.74;100.00
20023;BME280;10172;42.054;24.546;2023-05-19T05:10:35;98296.88;;;15.45;100.00
20023;BME280;10172;42.054;24.546;2023-05-19T05:13:00;98302.22;;;15.15;100.00
20023;BME280;10172;42.054;24.546;2023-05-19T05:15:26;98314.59;;;15.57;100.00
20023;BME280;10172;42.054;24.546;2023-05-19T05:17:54;98310.25;;;15.57;100.00
20023;BME280;10172;42.054;24.546;2023-05-19T05:20:20;98313.88;;;15.86;100.00
20023;BME280;10172;42.054;24.546;2023-05-19T05:22:46;98323.84;;;16.14;100.00
20023;BME280;10172;42.054;24.546;2023-05-19T05:25:12;98317.91;;;16.10;100.00
20023;BME280;10172;42.054;24.546;2023-05-19T05:27:38;98322.91;;;15.85;100.00
20023;BME280;10172;42.054;24.546;2023-05-19T05:30:04;98335.13;;;16.08;100.00
20023;BME280;10172;42.054;24.546;2023-05-19T05:32:29;98328.50;;;16.81;100.00
20023;BME280;10172;42.054;24.546;2023-05-19T05:34:55;98333.25;;;17.34;100.00
20023;BME280;10172;42.054;24.546;2023-05-19T05:37:20;98343.75;;;16.99;100.00
20023;BME280;10172;42.054;24.546;2023-05-19T05:39:46;98340.34;;;16.68;100.00
20023;BME280;10172;42.054;24.546;2023-05-19T05:42:11;98346.00;;;17.04;100.00
20023;BME280;10172;42.054;24.546;2023-05-19T05:44:37;98345.72;;;17.07;100.00
20023;BME280;10172;42.054;24.546;2023-05-19T05:47:02;98338.44;;;17.65;100.00
20023;BME280;10172;42.054;24.546;2023-05-19T05:49:28;98346.38;;;17.93;100.00
20023;BME280;10172;42.054;24.546;2023-05-19T05:51:54;98345.38;;;17.58;100.00
20023;BME280;10172;42.054;24.546;2023-05-19T05:54:21;98345.94;;;17.42;100.00
20023;BME280;10172;42.054;24.546;2023-05-19T05:56:47;98336.06;;;17.33;100.00
20023;BME280;10172;42.054;24.546;2023-05-19T05:59:13;98347.25;;;17.84;100.00
20023;BME280;10172;42.054;24.546;2023-05-19T06:01:39;98352.75;;;17.46;100.00
20023;BME280;10172;42.054;24.546;2023-05-19T06:04:06;98353.28;;;17.50;100.00
20023;BME280;10172;42.054;24.546;2023-05-19T06:06:32;98360.81;;;17.56;100.00
20023;BME280;10172;42.054;24.546;2023-05-19T06:08:57;98360.59;;;17.76;100.00
20023;BME280;10172;42.054;24.546;2023-05-19T06:11:23;98358.13;;;17.92;100.00
20023;BME280;10172;42.054;24.546;2023-05-19T06:13:49;98359.66;;;18.05;100.00
20023;BME280;10172;42.054;24.546;2023-05-19T06:16:15;98363.91;;;18.34;100.00
20023;BME280;10172;42.054;24.546;2023-05-19T06:18:40;98363.63;;;18.01;100.00
20023;BME280;10172;42.054;24.546;2023-05-19T06:21:05;98374.28;;;18.29;100.00
20023;BME280;10172;42.054;24.546;2023-05-19T06:23:34;98364.03;;;18.60;100.00
20023;BME280;10172;42.054;24.546;2023-05-19T06:26:00;98364.13;;;18.68;100.00
20023;BME280;10172;42.054;24.546;2023-05-19T06:28:25;98371.06;;;19.24;100.00
20023;BME280;10172;42.054;24.546;2023-05-19T06:30:51;98376.09;;;19.19;100.00
20023;BME280;10172;42.054;24.546;2023-05-19T06:33:16;98374.75;;;18.87;100.00
20023;BME280;10172;42.054;24.546;2023-05-19T06:35:42;98382.28;;;18.12;100.00
20023;BME280;10172;42.054;24.546;2023-05-19T06:38:07;98385.19;;;18.28;100.00
20023;BME280;10172;42.054;24.546;2023-05-19T06:40:33;98379.78;;;18.28;100.00
20023;BME280;10172;42.054;24.546;2023-05-19T06:42:58;98385.06;;;18.74;100.00
20023;BME280;10172;42.054;24.546;2023-05-19T06:45:24;98387.09;;;19.07;100.00
20023;BME280;10172;42.054;24.546;2023-05-19T06:47:49;98376.03;;;18.48;100.00
20023;BME280;10172;42.054;24.546;2023-05-19T06:50:15;98387.75;;;18.57;100.00
20023;BME280;10172;42.054;24.546;2023-05-19T06:52:40;98388.34;;;18.50;100.00
20023;BME280;10172;42.054;24.546;2023-05-19T06:55:07;98390.13;;;18.32;100.00
20023;BME280;10172;42.054;24.546;2023-05-19T06:57:32;98384.59;;;18.61;100.00
20023;BME280;10172;42.054;24.546;2023-05-19T06:59:58;98388.97;;;18.89;100.00
20023;BME280;10172;42.054;24.546;2023-05-19T07:02:23;98388.28;;;18.60;100.00
20023;BME280;10172;42.054;24.546;2023-05-19T07:04:49;98387.78;;;18.47;100.00
20023;BME280;10172;42.054;24.546;2023-05-19T07:07:17;98389.31;;;19.12;100.00
20023;BME280;10172;42.054;24.546;2023-05-19T07:09:42;98389.88;;;19.16;100.00
20023;BME280;10172;42.054;24.546;2023-05-19T07:12:07;98383.69;;;18.70;100.00
20023;BME280;10172;42.054;24.546;2023-05-19T07:14:33;98386.41;;;18.88;100.00
20023;BME280;10172;42.054;24.546;2023-05-19T07:17:00;98387.75;;;18.57;100.00
20023;BME280;10172;42.054;24.546;2023-05-19T07:19:26;98380.88;;;18.89;100.00
20023;BME280;10172;42.054;24.546;2023-05-19T07:21:51;98386.00;;;19.00;100.00
20023;BME280;10172;42.054;24.546;2023-05-19T07:24:17;98384.78;;;18.77;100.00
20023;BME280;10172;42.054;24.546;2023-05-19T07:26:42;98386.28;;;18.89;100.00
20023;BME280;10172;42.054;24.546;2023-05-19T07:29:08;98390.31;;;19.29;100.00
20023;BME280;10172;42.054;24.546;2023-05-19T07:31:33;98393.97;;;19.02;100.00
20023;BME280;10172;42.054;24.546;2023-05-19T07:33:58;98388.28;;;18.60;100.00
20023;BME280;10172;42.054;24.546;2023-05-19T07:36:24;98370.00;;;18.81;100.00
20023;BME280;10172;42.054;24.546;2023-05-19T07:38:49;98377.06;;;19.18;100.00
20023;BME280;10172;42.054;24.546;2023-05-19T07:41:15;98383.50;;;19.60;100.00
20023;BME280;10172;42.054;24.546;2023-05-19T07:43:41;98368.44;;;19.75;100.00
20023;BME280;10172;42.054;24.546;2023-05-19T07:46:07;98376.41;;;20.10;100.00
20023;BME280;10172;42.054;24.546;2023-05-19T07:48:32;98381.53;;;19.62;100.00
20023;BME280;10172;42.054;24.546;2023-05-19T07:50:58;98378.97;;;19.60;100.00
20023;BME280;10172;42.054;24.546;2023-05-19T07:53:23;98383.38;;;19.44;100.00
20023;BME280;10172;42.054;24.546;2023-05-19T07:55:49;98398.94;;;18.79;100.00
20023;BME280;10172;42.054;24.546;2023-05-19T07:58:14;98389.56;;;18.83;100.00
20023;BME280;10172;42.054;24.546;2023-05-19T08:00:40;98376.91;;;19.37;100.00
20023;BME280;10172;42.054;24.546;2023-05-19T08:03:08;98378.69;;;19.46;100.00
20023;BME280;10172;42.054;24.546;2023-05-19T08:05:34;98379.25;;;18.79;100.00
20023;BME280;10172;42.054;24.546;2023-05-19T08:08:01;98378.81;;;19.62;100.00
20023;BME280;10172;42.054;24.546;2023-05-19T08:10:27;98382.63;;;20.03;100.00
20023;BME280;10172;42.054;24.546;2023-05-19T08:12:52;98378.34;;;20.60;100.00
20023;BME280;10172;42.054;24.546;2023-05-19T08:15:17;98385.47;;;20.85;100.00
20023;BME280;10172;42.054;24.546;2023-05-19T08:17:44;98394.03;;;20.56;98.52
20023;BME280;10172;42.054;24.546;2023-05-19T08:20:09;98390.06;;;20.35;99.52
20023;BME280;10172;42.054;24.546;2023-05-19T08:22:36;98398.41;;;20.57;100.00
20023;BME280;10172;42.054;24.546;2023-05-19T08:25:02;98404.16;;;21.20;96.25
20023;BME280;10172;42.054;24.546;2023-05-19T08:27:29;98415.34;;;21.90;94.87
20023;BME280;10172;42.054;24.546;2023-05-19T08:29:55;98410.19;;;22.27;92.50
20023;BME280;10172;42.054;24.546;2023-05-19T08:32:21;98406.25;;;22.38;90.64
20023;BME280;10172;42.054;24.546;2023-05-19T08:34:47;98387.97;;;22.32;85.62
20023;BME280;10172;42.054;24.546;2023-05-19T08:37:12;98373.00;;;22.83;85.43
20023;BME280;10172;42.054;24.546;2023-05-19T08:39:37;98379.75;;;22.64;86.06
20023;BME280;10172;42.054;24.546;2023-05-19T08:42:03;98377.91;;;20.88;90.94
20023;BME280;10172;42.054;24.546;2023-05-19T08:44:29;98372.00;;;21.90;91.99
20023;BME280;10172;42.054;24.546;2023-05-19T08:46:57;98369.50;;;21.64;93.77
20023;BME280;10172;42.054;24.546;2023-05-19T08:49:26;98374.03;;;21.96;91.38
20023;BME280;10172;42.054;24.546;2023-05-19T08:52:01;98377.78;;;22.81;89.85
20023;BME280;10172;42.054;24.546;2023-05-19T08:54:40;98376.34;;;22.93;90.77
20023;BME280;10172;42.054;24.546;2023-05-19T08:57:09;98383.16;;;22.89;86.70
20023;BME280;10172;42.054;24.546;2023-05-19T08:59:35;98369.06;;;23.61;81.00
20023;BME280;10172;42.054;24.546;2023-05-19T09:02:02;98367.44;;;23.90;80.22
20023;BME280;10172;42.054;24.546;2023-05-19T09:04:29;98353.75;;;23.98;79.86
20023;BME280;10172;42.054;24.546;2023-05-19T09:06:55;98356.63;;;22.99;84.53
20023;BME280;10172;42.054;24.546;2023-05-19T09:09:21;98343.84;;;23.53;81.98
20023;BME280;10172;42.054;24.546;2023-05-19T09:11:46;98351.59;;;23.18;82.97
20023;BME280;10172;42.054;24.546;2023-05-19T09:14:12;98355.03;;;22.04;86.14
20023;BME280;10172;42.054;24.546;2023-05-19T09:16:38;98360.38;;;23.20;84.79
20023;BME280;10172;42.054;24.546;2023-05-19T09:19:03;98352.97;;;22.92;81.52
20023;BME280;10172;42.054;24.546;2023-05-19T09:21:29;98355.00;;;22.90;83.73
20023;BME280;10172;42.054;24.546;2023-05-19T09:23:56;98356.44;;;22.78;81.23
20023;BME280;10172;42.054;24.546;2023-05-19T09:26:23;98345.38;;;23.70;76.60
20023;BME280;10172;42.054;24.546;2023-05-19T09:28:49;98361.44;;;24.53;76.17
20023;BME280;10172;42.054;24.546;2023-05-19T09:31:17;98342.78;;;25.21;71.75
20023;BME280;10172;42.054;24.546;2023-05-19T09:33:43;98331.41;;;24.10;68.63
20023;BME280;10172;42.054;24.546;2023-05-19T09:36:08;98335.31;;;24.87;70.62
20023;BME280;10172;42.054;24.546;2023-05-19T09:38:36;98334.28;;;24.88;67.45
20023;BME280;10172;42.054;24.546;2023-05-19T09:41:06;98338.69;;;23.58;70.32
20023;BME280;10172;42.054;24.546;2023-05-19T09:43:40;98341.28;;;22.52;72.59
20023;BME280;10172;42.054;24.546;2023-05-19T09:46:10;98337.16;;;24.07;73.34
20023;BME280;10172;42.054;24.546;2023-05-19T09:48:41;98334.59;;;23.76;73.07
20023;BME280;10172;42.054;24.546;2023-05-19T09:51:09;98336.66;;;24.98;69.78
20023;BME280;10172;42.054;24.546;2023-05-19T09:53:38;98340.53;;;24.38;65.99
20023;BME280;10172;42.054;24.546;2023-05-19T09:56:09;98334.66;;;24.20;67.21
20023;BME280;10172;42.054;24.546;2023-05-19T09:58:35;98331.84;;;24.43;65.14
20023;BME280;10172;42.054;24.546;2023-05-19T10:01:02;98333.38;;;25.03;72.55
20023;BME280;10172;42.054;24.546;2023-05-19T10:03:29;98320.59;;;24.46;67.57
20023;BME280;10172;42.054;24.546;2023-05-19T10:05:59;98327.28;;;25.64;69.79
20023;BME280;10172;42.054;24.546;2023-05-19T10:08:27;98326.88;;;25.46;70.32
20023;BME280;10172;42.054;24.546;2023-05-19T10:10:54;98323.25;;;25.88;67.36
20023;BME280;10172;42.054;24.546;2023-05-19T10:13:21;98331.50;;;26.29;67.50
20023;BME280;10172;42.054;24.546;2023-05-19T10:15:48;98320.34;;;25.89;63.45
20023;BME280;10172;42.054;24.546;2023-05-19T10:18:16;98316.38;;;25.43;63.13
20023;BME280;10172;42.054;24.546;2023-05-19T10:20:43;98309.22;;;25.35;63.16
20023;BME280;10172;42.054;24.546;2023-05-19T10:23:08;98304.69;;;25.70;64.85
20023;BME280;10172;42.054;24.546;2023-05-19T10:25:34;98309.84;;;25.86;60.89
20023;BME280;10172;42.054;24.546;2023-05-19T10:28:06;98300.97;;;25.29;60.94
20023;BME280;10172;42.054;24.546;2023-05-19T10:30:37;98303.38;;;25.66;64.13
20023;BME280;10172;42.054;24.546;2023-05-19T10:33:06;98309.03;;;25.92;64.68
20023;BME280;10172;42.054;24.546;2023-05-19T10:38:29;98314.50;;;25.99;64.67
20023;BME280;10172;42.054;24.546;2023-05-19T10:41:12;98308.25;;;26.05;65.78
20023;BME280;10172;42.054;24.546;2023-05-19T10:46:12;98303.56;;;26.67;61.78
20023;BME280;10172;42.054;24.546;2023-05-19T10:48:43;98307.66;;;26.50;61.95
20023;BME280;10172;42.054;24.546;2023-05-19T10:51:09;98308.88;;;26.35;64.00
20023;BME280;10172;42.054;24.546;2023-05-19T10:53:39;98303.44;;;26.00;58.78
20023;BME280;10172;42.054;24.546;2023-05-19T10:56:05;98297.97;;;26.41;61.21
20023;BME280;10172;42.054;24.546;2023-05-19T10:58:37;98302.00;;;26.11;58.80
20023;BME280;10172;42.054;24.546;2023-05-19T11:01:12;98291.25;;;24.98;68.89
20023;BME280;10172;42.054;24.546;2023-05-19T11:03:53;98289.00;;;24.66;69.04
20023;BME280;10172;42.054;24.546;2023-05-19T11:06:29;98290.38;;;25.62;63.08
20023;BME280;10172;42.054;24.546;2023-05-19T11:14:14;98270.09;;;25.43;65.51
20023;BME280;10172;42.054;24.546;2023-05-19T11:16:41;98267.38;;;26.05;62.48
20023;BME280;10172;42.054;24.546;2023-05-19T11:19:07;98257.81;;;25.26;60.38
20023;BME280;10172;42.054;24.546;2023-05-19T11:21:52;98262.63;;;25.03;65.93
20023;BME280;10172;42.054;24.546;2023-05-19T11:24:37;98259.25;;;25.22;62.99
20023;BME280;10172;42.054;24.546;2023-05-19T11:29:52;98278.06;;;26.00;60.85
20023;BME280;10172;42.054;24.546;2023-05-19T11:32:36;98279.78;;;25.73;71.80
20023;BME280;10172;42.054;24.546;2023-05-19T11:35:03;98284.41;;;24.02;86.70
20023;BME280;10172;42.054;24.546;2023-05-19T11:37:32;98307.41;;;21.71;92.25
20023;BME280;10172;42.054;24.546;2023-05-19T11:40:02;98372.91;;;20.52;100.00
20023;BME280;10172;42.054;24.546;2023-05-19T11:42:30;98336.63;;;19.61;89.39
20023;BME280;10172;42.054;24.546;2023-05-19T11:44:56;98331.09;;;19.96;100.00
20023;BME280;10172;42.054;24.546;2023-05-19T11:47:21;98325.28;;;19.32;100.00
20023;BME280;10172;42.054;24.546;2023-05-19T11:49:47;98325.13;;;18.45;100.00
20023;BME280;10172;42.054;24.546;2023-05-19T11:52:13;98318.47;;;18.84;100.00
20023;BME280;10172;42.054;24.546;2023-05-19T11:54:39;98307.53;;;18.06;100.00
20023;BME280;10172;42.054;24.546;2023-05-19T11:57:08;98300.84;;;18.90;100.00
20023;BME280;10172;42.054;24.546;2023-05-19T11:59:38;98299.09;;;18.36;100.00
20023;BME280;10172;42.054;24.546;2023-05-19T12:02:23;98301.84;;;18.54;100.00
20023;BME280;10172;42.054;24.546;2023-05-19T12:04:49;98302.22;;;18.76;100.00
20023;BME280;10172;42.054;24.546;2023-05-19T12:07:17;98284.47;;;19.09;100.00
20023;BME280;10172;42.054;24.546;2023-05-19T12:09:46;98291.75;;;20.27;100.00
20023;BME280;10172;42.054;24.546;2023-05-19T12:12:16;98281.06;;;20.92;100.00
20023;BME280;10172;42.054;24.546;2023-05-19T12:14:43;98290.00;;;21.01;100.00
20023;BME280;10172;42.054;24.546;2023-05-19T12:17:11;98286.78;;;20.57;100.00
20023;BME280;10172;42.054;24.546;2023-05-19T12:19:37;98279.38;;;20.83;100.00
20023;BME280;10172;42.054;24.546;2023-05-19T12:22:05;98274.66;;;21.17;100.00
20023;BME280;10172;42.054;24.546;2023-05-19T12:24:33;98284.19;;;21.68;100.00
20023;BME280;10172;42.054;24.546;2023-05-19T12:27:18;98283.97;;;22.02;93.18
20023;BME280;10172;42.054;24.546;2023-05-19T12:29:55;98274.78;;;22.73;100.00
20023;BME280;10172;42.054;24.546;2023-05-19T12:32:25;98275.69;;;23.25;100.00
20023;BME280;10172;42.054;24.546;2023-05-19T12:34:51;98277.59;;;23.02;100.00
20023;BME280;10172;42.054;24.546;2023-05-19T12:37:16;98273.47;;;21.28;100.00
20023;BME280;10172;42.054;24.546;2023-05-19T12:39:44;98273.41;;;20.47;100.00
20023;BME280;10172;42.054;24.546;2023-05-19T12:42:10;98268.75;;;21.06;100.00
20023;BME280;10172;42.054;24.546;2023-05-19T12:44:48;98275.34;;;21.82;100.00
20023;BME280;10172;42.054;24.546;2023-05-19T12:47:16;98263.44;;;20.48;100.00
20023;BME280;10172;42.054;24.546;2023-05-19T12:50:13;98275.47;;;20.11;100.00
20023;BME280;10172;42.054;24.546;2023-05-19T12:52:45;98277.28;;;20.45;100.00
20023;BME280;10172;42.054;24.546;2023-05-19T12:55:11;98267.38;;;20.77;100.00
20023;BME280;10172;42.054;24.546;2023-05-19T12:57:39;98270.03;;;20.53;100.00
20023;BME280;10172;42.054;24.546;2023-05-19T13:00:12;98262.16;;;20.76;100.00
20023;BME280;10172;42.054;24.546;2023-05-19T13:02:57;98261.44;;;20.90;100.00
20023;BME280;10172;42.054;24.546;2023-05-19T13:05:24;98267.81;;;21.62;100.00
20023;BME280;10172;42.054;24.546;2023-05-19T13:07:57;98260.53;;;21.70;100.00